Time;durP1;ratioP1;P1;durP2;ratioP2;P2;SDS_P1;SDS_P2;PMS_P1;PMS_P2;Temp;Humidity;BMP_temperature;BMP_pressure;BME280_temperature;BME280_humidity;BME280_pressure;Samples;Min_cycle;Max_cycle;Signal;HPM_P1;HPM_P2
2023/04/08 00:01:51;;;;;;;;;;;9.90;99.90;;;;;;5105477;28;19924;-81
2023/04/08 00:04:18;;;;;;;;;;;9.90;99.90;;;;;;5098932;28;20449;-82
2023/04/08 00:06:47;;;;;;;;;;;9.90;99.90;;;;;;5084794;28;19913;-82
2023/04/08 00:09:13;;;;;;;;;;;9.70;99.90;;;;;;5098024;28;20000;-82
2023/04/08 00:11:41;;;;;;;;;;;9.80;99.90;;;;;;5090487;28;20804;-83
2023/04/08 00:14:08;;;;;;;;;;;9.80;99.90;;;;;;5100974;28;19959;-80
2023/04/08 00:16:35;;;;;;;;;;;9.80;99.90;;;;;;5097555;28;19948;-82
2023/04/08 00:19:02;;;;;;;;;;;9.80;99.90;;;;;;5078614;28;20351;-81
2023/04/08 00:21:30;;;;;;;;;;;9.80;99.90;;;;;;5078203;28;19925;-82
2023/04/08 00:23:59;;;;;;;;;;;9.80;99.90;;;;;;5095815;28;19970;-83
2023/04/08 00:26:26;;;;;;;;;;;9.80;99.90;;;;;;5086388;28;19924;-82
2023/04/08 00:28:54;;;;;;;;;;;9.80;99.90;;;;;;5091034;28;20410;-86
2023/04/08 00:31:21;;;;;;;;;;;9.80;99.90;;;;;;5097099;28;19924;-82
2023/04/08 00:33:48;;;;;;;;;;;9.80;99.90;;;;;;5093420;28;20000;-84
2023/04/08 00:36:15;;;;;;;;;;;9.80;99.90;;;;;;5090480;28;19932;-83
2023/04/08 00:38:42;;;;;;;;;;;9.80;99.90;;;;;;5096825;28;20016;-80
2023/04/08 00:41:11;;;;;;;;;;;9.60;99.90;;;;;;5091166;28;19923;-83
2023/04/08 00:43:42;;;;;;;;;;;9.60;99.90;;;;;;5101672;28;19975;-83
2023/04/08 00:46:10;;;;;;;;;;;9.70;99.90;;;;;;5089187;28;19928;-88
2023/04/08 00:48:37;;;;;;;;;;;9.60;99.90;;;;;;5096622;28;20307;-86
2023/04/08 00:51:06;;;;;;;;;;;9.50;99.90;;;;;;5097811;28;19934;-86
2023/04/08 00:53:33;;;;;;;;;;;9.50;99.90;;;;;;5090300;28;19963;-89
2023/04/08 00:56:00;;;;;;;;;;;9.50;99.90;;;;;;5081410;28;19977;-85
2023/04/08 00:58:29;;;;;;;;;;;9.50;99.90;;;;;;5096956;28;19968;-86
2023/04/08 01:01:00;;;;;;;;;;;9.50;99.90;;;;;;5078625;28;19934;-85
2023/04/08 01:03:31;;;;;;;;;;;9.50;99.90;;;;;;5081827;28;19932;-85
2023/04/08 01:06:04;;;;;;;;;;;9.40;99.90;;;;;;5087547;28;19936;-87
2023/04/08 01:08:32;;;;;;;;;;;9.50;99.90;;;;;;5087867;28;19924;-87
2023/04/08 01:11:01;;;;;;;;;;;9.50;99.90;;;;;;5079583;28;20022;-88
2023/04/08 01:13:31;;;;;;;;;;;9.40;99.90;;;;;;5083660;28;20031;-87
2023/04/08 01:15:58;;;;;;;;;;;9.40;99.90;;;;;;5096406;28;20414;-87
2023/04/08 01:18:26;;;;;;;;;;;9.40;99.90;;;;;;5088455;28;19925;-88
2023/04/08 01:20:54;;;;;;;;;;;9.40;99.90;;;;;;5086995;28;20414;-88
2023/04/08 01:23:24;;;;;;;;;;;9.30;99.90;;;;;;5090741;28;19965;-88
2023/04/08 01:26:03;;;;;;;;;;;9.30;99.90;;;;;;5095430;28;20409;-85
2023/04/08 01:28:42;;;;;;;;;;;9.20;99.90;;;;;;5089857;28;19929;-87
2023/04/08 01:31:09;;;;;;;;;;;9.20;99.90;;;;;;5079505;28;19997;-86
2023/04/08 01:33:37;;;;;;;;;;;9.20;99.90;;;;;;5082643;28;20645;-86
2023/04/08 01:36:04;;;;;;;;;;;9.10;99.90;;;;;;5089086;28;19924;-87
2023/04/08 01:38:31;;;;;;;;;;;9.10;99.90;;;;;;5090618;28;20414;-86
2023/04/08 01:41:05;;;;;;;;;;;9.00;99.90;;;;;;5088152;28;20407;-87
2023/04/08 01:43:33;;;;;;;;;;;9.00;99.90;;;;;;5098952;28;20338;-86
2023/04/08 01:46:01;;;;;;;;;;;8.90;99.90;;;;;;5097091;28;19913;-86
2023/04/08 01:48:28;;;;;;;;;;;8.90;99.90;;;;;;5095876;28;19928;-87
2023/04/08 01:50:56;;;;;;;;;;;8.80;99.90;;;;;;5091730;28;19924;-87
2023/04/08 01:53:23;;;;;;;;;;;8.80;99.90;;;;;;5087802;28;19935;-85
2023/04/08 01:55:55;;;;;;;;;;;8.70;99.90;;;;;;5079740;28;19924;-88
2023/04/08 01:58:24;;;;;;;;;;;8.70;99.90;;;;;;5092559;28;20469;-88
2023/04/08 02:00:53;;;;;;;;;;;8.70;99.90;;;;;;5092855;28;19924;-86
2023/04/08 02:03:22;;;;;;;;;;;8.70;99.90;;;;;;5089104;28;19935;-87
2023/04/08 02:05:49;;;;;;;;;;;8.70;99.90;;;;;;5089631;28;19925;-87
2023/04/08 02:08:18;;;;;;;;;;;8.70;99.90;;;;;;5089467;28;19963;-88
2023/04/08 02:10:46;;;;;;;;;;;8.70;99.90;;;;;;5094929;28;19936;-89
2023/04/08 02:13:12;;;;;;;;;;;8.70;99.90;;;;;;5090324;28;19973;-88
2023/04/08 02:15:43;;;;;;;;;;;8.80;99.90;;;;;;5092860;28;19924;-87
2023/04/08 02:18:16;;;;;;;;;;;8.80;99.90;;;;;;5084430;28;20010;-87
2023/04/08 02:20:44;;;;;;;;;;;8.80;99.90;;;;;;5071074;28;19956;-86
2023/04/08 02:23:15;;;;;;;;;;;8.80;99.90;;;;;;5078406;28;19927;-87
2023/04/08 02:25:44;;;;;;;;;;;8.80;99.90;;;;;;5077632;28;19977;-87
2023/04/08 02:28:21;;;;;;;;;;;8.70;99.90;;;;;;5086103;28;19936;-87
2023/04/08 02:30:52;;;;;;;;;;;6.70;99.90;;;;;;5067437;28;19924;-87
2023/04/08 02:33:20;;;;;;;;;;;8.50;99.90;;;;;;5075733;28;19924;-87
2023/04/08 02:35:48;;;;;;;;;;;8.30;99.90;;;;;;5088158;28;19932;-87
2023/04/08 02:38:16;;;;;;;;;;;8.20;99.90;;;;;;5096086;28;19960;-87
2023/04/08 02:40:44;;;;;;;;;;;7.10;99.90;;;;;;5092434;28;19924;-87
2023/04/08 02:43:11;;;;;;;;;;;7.70;99.90;;;;;;5074677;28;20426;-87
2023/04/08 02:45:41;;;;;;;;;;;7.90;99.90;;;;;;5081954;28;19928;-87
2023/04/08 02:48:10;;;;;;;;;;;7.70;99.90;;;;;;5089828;28;19963;-87
2023/04/08 02:50:40;;;;;;;;;;;7.60;99.90;;;;;;5094524;28;19932;-87
2023/04/08 02:53:07;;;;;;;;;;;7.50;99.90;;;;;;5106848;28;20061;-86
2023/04/08 02:55:34;;;;;;;;;;;7.50;99.90;;;;;;5089434;28;19950;-87
2023/04/08 02:58:01;;;;;;;;;;;7.40;99.90;;;;;;5091516;28;19924;-89
2023/04/08 03:00:28;;;;;;;;;;;7.30;99.90;;;;;;5087952;28;19932;-87
2023/04/08 03:02:55;;;;;;;;;;;7.20;99.90;;;;;;5092962;28;20292;-88
2023/04/08 03:05:24;;;;;;;;;;;7.10;99.90;;;;;;5090741;28;20457;-89
2023/04/08 03:07:51;;;;;;;;;;;7.10;99.90;;;;;;5086334;28;19924;-89
2023/04/08 03:10:18;;;;;;;;;;;7.00;99.90;;;;;;5097238;28;20039;-87
2023/04/08 03:12:45;;;;;;;;;;;6.90;99.90;;;;;;5091701;28;19931;-88
2023/04/08 03:15:12;;;;;;;;;;;6.90;99.90;;;;;;5093026;28;20402;-88
2023/04/08 03:17:39;;;;;;;;;;;6.80;99.90;;;;;;5088738;28;19935;-88
2023/04/08 03:20:06;;;;;;;;;;;6.70;99.90;;;;;;5087994;28;19923;-88
2023/04/08 03:22:36;;;;;;;;;;;6.60;99.90;;;;;;5088220;28;19931;-88
2023/04/08 03:25:03;;;;;;;;;;;6.60;99.90;;;;;;5093577;28;19929;-87
2023/04/08 03:27:30;;;;;;;;;;;6.60;99.90;;;;;;5071080;28;19925;-87
2023/04/08 03:29:57;;;;;;;;;;;6.60;99.90;;;;;;5095986;28;19928;-87
2023/04/08 03:32:24;;;;;;;;;;;6.50;99.90;;;;;;5076799;28;19934;-87
2023/04/08 03:34:52;;;;;;;;;;;6.50;99.90;;;;;;5079889;28;19932;-86
2023/04/08 03:37:19;;;;;;;;;;;6.40;99.90;;;;;;5075342;28;19928;-87
2023/04/08 03:39:48;;;;;;;;;;;6.30;99.90;;;;;;5088421;28;19932;-85
2023/04/08 03:42:14;;;;;;;;;;;6.30;99.90;;;;;;5089203;28;19934;-87
2023/04/08 03:47:53;;;;;;;;;;;6.10;99.90;;;;;;5090471;28;20371;-82
2023/04/08 03:50:20;;;;;;;;;;;6.10;99.90;;;;;;5090777;28;20471;-82
2023/04/08 03:52:47;;;;;;;;;;;6.00;99.90;;;;;;5093231;28;19989;-83
2023/04/08 03:55:16;;;;;;;;;;;6.00;99.90;;;;;;5091523;28;19935;-84
2023/04/08 03:57:44;;;;;;;;;;;5.90;99.90;;;;;;5090449;28;19939;-83
2023/04/08 04:00:11;;;;;;;;;;;5.90;99.90;;;;;;5084326;28;20688;-81
2023/04/08 04:02:41;;;;;;;;;;;5.80;99.90;;;;;;5089776;28;19932;-81
2023/04/08 04:05:08;;;;;;;;;;;5.70;99.90;;;;;;5086604;28;20024;-81
2023/04/08 04:07:35;;;;;;;;;;;5.60;99.90;;;;;;5101949;28;19951;-81
2023/04/08 04:10:02;;;;;;;;;;;5.60;99.90;;;;;;5090923;28;19924;-81
2023/04/08 04:12:30;;;;;;;;;;;5.50;99.90;;;;;;5087040;28;20448;-80
2023/04/08 04:15:16;;;;;;;;;;;5.50;99.90;;;;;;5084355;28;20319;-81
2023/04/08 04:18:04;;;;;;;;;;;5.40;99.90;;;;;;5075895;28;19933;-81
2023/04/08 04:20:41;;;;;;;;;;;5.50;99.90;;;;;;5089910;28;19928;-81
2023/04/08 04:23:11;;;;;;;;;;;5.50;99.90;;;;;;5076104;28;19932;-80
2023/04/08 04:25:40;;;;;;;;;;;5.60;99.90;;;;;;5093768;28;20008;-81
2023/04/08 04:28:09;;;;;;;;;;;5.60;99.90;;;;;;5069867;28;21243;-81
2023/04/08 04:30:42;;;;;;;;;;;5.60;99.90;;;;;;5089446;28;19977;-83
2023/04/08 04:33:09;;;;;;;;;;;5.70;99.90;;;;;;5075964;28;20308;-83
2023/04/08 04:35:35;;;;;;;;;;;5.80;99.90;;;;;;5087144;28;19935;-83
2023/04/08 04:38:04;;;;;;;;;;;5.80;99.90;;;;;;5076433;28;19960;-83
2023/04/08 04:40:31;;;;;;;;;;;6.00;99.90;;;;;;5081662;28;19928;-83
2023/04/08 04:42:58;;;;;;;;;;;6.10;99.90;;;;;;5080988;28;19956;-82
2023/04/08 04:45:26;;;;;;;;;;;6.20;99.90;;;;;;5092803;28;19956;-83
2023/04/08 04:47:53;;;;;;;;;;;6.30;99.90;;;;;;5094993;28;20295;-83
2023/04/08 04:50:20;;;;;;;;;;;6.40;99.90;;;;;;5094447;28;19928;-82
2023/04/08 04:52:47;;;;;;;;;;;6.40;99.90;;;;;;5089866;28;19968;-83
2023/04/08 04:55:14;;;;;;;;;;;6.50;99.90;;;;;;5091616;28;19932;-83
2023/04/08 04:57:43;;;;;;;;;;;6.60;99.90;;;;;;5097009;28;19967;-86
2023/04/08 05:00:10;;;;;;;;;;;6.60;99.90;;;;;;5086737;28;19927;-84
2023/04/08 05:02:39;;;;;;;;;;;6.70;99.90;;;;;;5093313;28;19928;-86
2023/04/08 05:05:06;;;;;;;;;;;6.80;99.90;;;;;;5086252;28;19983;-85
2023/04/08 05:07:35;;;;;;;;;;;6.80;99.90;;;;;;5089819;28;19930;-86
2023/04/08 05:10:03;;;;;;;;;;;6.90;99.90;;;;;;5087567;28;19928;-88
2023/04/08 05:12:30;;;;;;;;;;;6.90;99.90;;;;;;5097249;28;19939;-86
2023/04/08 05:14:59;;;;;;;;;;;6.90;99.90;;;;;;5080245;28;19985;-86
2023/04/08 05:17:26;;;;;;;;;;;6.90;99.90;;;;;;5078974;28;19935;-87
2023/04/08 05:19:55;;;;;;;;;;;6.90;99.90;;;;;;5093193;28;19936;-86
2023/04/08 05:22:22;;;;;;;;;;;7.00;99.90;;;;;;5093305;28;19928;-86
2023/04/08 05:24:49;;;;;;;;;;;6.90;99.90;;;;;;5082660;28;19934;-86
2023/04/08 05:27:16;;;;;;;;;;;6.90;99.90;;;;;;5098321;28;19967;-86
2023/04/08 05:29:43;;;;;;;;;;;7.00;99.90;;;;;;5083343;28;19935;-85
2023/04/08 05:32:10;;;;;;;;;;;7.00;99.90;;;;;;5087420;28;19924;-88
2023/04/08 05:34:37;;;;;;;;;;;7.10;99.90;;;;;;5098818;28;19928;-89
2023/04/08 05:37:06;;;;;;;;;;;7.20;99.90;;;;;;5085751;28;19932;-88
2023/04/08 05:39:33;;;;;;;;;;;7.30;99.90;;;;;;5081177;28;19935;-89
2023/04/08 05:42:00;;;;;;;;;;;7.40;99.90;;;;;;5083993;28;19912;-88
2023/04/08 05:44:27;;;;;;;;;;;7.50;99.90;;;;;;5082653;28;19912;-86
2023/04/08 05:46:54;;;;;;;;;;;7.50;99.90;;;;;;5083638;28;19971;-86
2023/04/08 05:49:21;;;;;;;;;;;7.70;99.90;;;;;;5090941;28;19924;-87
2023/04/08 05:51:48;;;;;;;;;;;7.80;99.90;;;;;;5101978;28;19951;-88
2023/04/08 05:54:16;;;;;;;;;;;7.80;99.90;;;;;;5099897;28;19935;-86
2023/04/08 05:56:45;;;;;;;;;;;7.90;99.90;;;;;;5102783;28;20003;-85
2023/04/08 05:59:12;;;;;;;;;;;8.00;99.90;;;;;;5102862;28;19931;-88
2023/04/08 06:01:40;;;;;;;;;;;8.10;99.90;;;;;;5095353;28;20035;-87
2023/04/08 06:04:08;;;;;;;;;;;8.10;99.90;;;;;;5106513;28;19931;-87
2023/04/08 06:06:35;;;;;;;;;;;8.10;99.90;;;;;;5090029;28;20387;-88
2023/04/08 06:09:01;;;;;;;;;;;8.10;99.90;;;;;;5081206;28;19924;-87
2023/04/08 06:11:31;;;;;;;;;;;8.20;99.90;;;;;;5081499;28;19939;-86
2023/04/08 06:14:02;;;;;;;;;;;8.30;99.90;;;;;;5101522;28;19928;-85
2023/04/08 06:16:29;;;;;;;;;;;8.30;99.90;;;;;;5085912;28;19952;-86
2023/04/08 06:18:56;;;;;;;;;;;8.30;99.90;;;;;;5089193;28;19924;-84
2023/04/08 06:21:23;;;;;;;;;;;8.20;99.90;;;;;;5096185;28;19912;-84
2023/04/08 06:23:50;;;;;;;;;;;8.20;99.90;;;;;;5102238;28;19924;-83
2023/04/08 06:26:17;;;;;;;;;;;8.20;99.90;;;;;;5088477;28;19928;-82
2023/04/08 06:31:49;;;;;;;;;;;8.30;99.90;;;;;;5077513;28;19929;-84
2023/04/08 06:34:16;;;;;;;;;;;8.40;99.90;;;;;;5082918;28;19959;-84
2023/04/08 06:36:57;;;;;;;;;;;8.40;99.90;;;;;;5080787;28;19932;-85
2023/04/08 06:39:34;;;;;;;;;;;8.40;99.90;;;;;;5079450;28;19925;-83
2023/04/08 06:42:02;;;;;;;;;;;8.50;99.90;;;;;;5079414;28;19955;-82
2023/04/08 06:44:59;;;;;;;;;;;8.60;99.90;;;;;;5082211;28;19984;-85
2023/04/08 06:47:26;;;;;;;;;;;8.60;99.90;;;;;;5081120;28;19987;-80
2023/04/08 06:49:55;;;;;;;;;;;8.60;99.90;;;;;;5077698;28;19948;-79
2023/04/08 06:52:22;;;;;;;;;;;8.60;99.90;;;;;;5097982;28;20011;-79
2023/04/08 06:54:49;;;;;;;;;;;8.80;99.90;;;;;;5099360;28;20302;-85
2023/04/08 06:57:16;;;;;;;;;;;8.90;99.90;;;;;;5085493;28;20050;-86
2023/04/08 06:59:45;;;;;;;;;;;9.00;99.90;;;;;;5088591;28;19951;-85
2023/04/08 07:02:24;;;;;;;;;;;9.20;99.90;;;;;;5078128;28;19924;-84
2023/04/08 07:04:53;;;;;;;;;;;9.30;99.90;;;;;;5088561;28;19959;-83
2023/04/08 07:07:23;;;;;;;;;;;9.40;99.90;;;;;;5096242;28;20023;-86
2023/04/08 07:09:50;;;;;;;;;;;9.50;99.90;;;;;;5106147;28;20436;-84
2023/04/08 07:12:19;;;;;;;;;;;9.60;99.90;;;;;;5105010;28;19928;-84
2023/04/08 07:14:47;;;;;;;;;;;9.70;99.90;;;;;;5101075;28;20323;-83
2023/04/08 07:20:29;;;;;;;;;;;9.80;99.90;;;;;;5008719;28;20061;-83
2023/04/08 07:23:04;;;;;;;;;;;9.90;99.90;;;;;;5073199;28;19928;-81
2023/04/08 07:25:33;;;;;;;;;;;10.10;99.90;;;;;;5085540;28;19999;-82
2023/04/08 07:28:01;;;;;;;;;;;10.20;99.90;;;;;;5087352;28;20462;-80
2023/04/08 07:30:32;;;;;;;;;;;10.30;99.90;;;;;;5091530;28;19927;-82
2023/04/08 07:33:02;;;;;;;;;;;10.20;99.90;;;;;;5039173;28;19963;-82
2023/04/08 07:35:32;;;;;;;;;;;10.20;99.90;;;;;;5093845;28;19994;-81
2023/04/08 07:37:59;;;;;;;;;;;10.20;99.90;;;;;;5084757;28;19929;-82
2023/04/08 07:40:27;;;;;;;;;;;10.20;99.90;;;;;;5093755;28;20109;-83
2023/04/08 07:42:54;;;;;;;;;;;10.30;99.90;;;;;;5089421;28;19925;-82
2023/04/08 07:45:21;;;;;;;;;;;10.30;99.90;;;;;;5090806;28;19931;-82
2023/04/08 07:48:13;;;;;;;;;;;10.40;99.90;;;;;;5091924;28;19935;-85
2023/04/08 07:50:50;;;;;;;;;;;10.40;99.90;;;;;;5095538;28;19929;-83
2023/04/08 07:53:18;;;;;;;;;;;10.40;99.90;;;;;;5085317;28;19928;-84
2023/04/08 07:55:46;;;;;;;;;;;10.30;99.90;;;;;;5098963;28;19928;-86
2023/04/08 07:58:13;;;;;;;;;;;10.20;99.90;;;;;;5102049;28;19912;-84
2023/04/08 08:00:42;;;;;;;;;;;10.00;99.90;;;;;;5092020;28;19956;-83
2023/04/08 08:03:10;;;;;;;;;;;9.90;99.90;;;;;;5092213;28;20310;-84
2023/04/08 08:05:38;;;;;;;;;;;9.80;99.90;;;;;;5071789;28;20303;-82
2023/04/08 08:08:11;;;;;;;;;;;9.90;99.90;;;;;;5089145;28;20356;-83
2023/04/08 08:10:39;;;;;;;;;;;9.90;99.90;;;;;;5085389;28;19925;-82
2023/04/08 08:13:15;;;;;;;;;;;10.00;99.90;;;;;;5086901;28;19951;-83
2023/04/08 08:15:43;;;;;;;;;;;10.20;99.90;;;;;;5087064;28;20023;-83
2023/04/08 08:18:21;;;;;;;;;;;10.30;99.90;;;;;;5086203;28;19936;-84
2023/04/08 08:20:48;;;;;;;;;;;10.40;99.90;;;;;;5410567;22;19972;-82
2023/04/08 08:23:17;;;;;;;;;;;11.50;99.90;;;;;;5043294;28;19951;-83
2023/04/08 08:25:44;;;;;;;;;;;10.50;99.90;;;;;;5056282;28;20402;-85
2023/04/08 08:28:17;;;;;;;;;;;10.50;99.90;;;;;;5053027;28;20914;-82
2023/04/08 08:30:45;;;;;;;;;;;10.60;99.90;;;;;;5032549;28;20350;-83
2023/04/08 08:33:12;;;;;;;;;;;10.80;99.90;;;;;;5035699;28;20296;-84
2023/04/08 08:35:39;;;;;;;;;;;10.90;99.90;;;;;;5048854;28;19993;-82
2023/04/08 08:38:06;;;;;;;;;;;11.00;99.90;;;;;;5035613;28;19947;-83
2023/04/08 08:40:34;;;;;;;;;;;11.10;99.90;;;;;;5034302;28;20394;-82
2023/04/08 08:43:01;;;;;;;;;;;11.00;99.90;;;;;;5033220;28;19955;-83
2023/04/08 08:45:28;;;;;;;;;;;11.10;99.90;;;;;;5035767;28;19936;-84
2023/04/08 08:47:56;;;;;;;;;;;11.10;99.90;;;;;;5036473;28;19936;-84
2023/04/08 08:50:24;;;;;;;;;;;11.20;99.90;;;;;;5050983;28;19963;-84
2023/04/08 08:52:51;;;;;;;;;;;11.30;99.90;;;;;;5036559;28;20578;-85
2023/04/08 08:55:18;;;;;;;;;;;11.30;99.90;;;;;;5038555;28;20380;-86
2023/04/08 08:57:50;;;;;;;;;;;11.40;99.90;;;;;;5058099;28;20001;-87
2023/04/08 09:00:17;;;;;;;;;;;11.50;99.90;;;;;;5068604;28;19955;-87
2023/04/08 09:02:44;;;;;;;;;;;11.30;99.90;;;;;;5054959;28;20232;-89
2023/04/08 09:05:10;;;;;;;;;;;11.00;99.90;;;;;;5071327;22;19952;-84
2023/04/08 09:07:40;;;;;;;;;;;10.90;99.90;;;;;;5077325;28;19913;-85
2023/04/08 09:10:09;;;;;;;;;;;11.10;99.90;;;;;;5089375;28;19929;-86
2023/04/08 09:12:52;;;;;;;;;;;11.00;99.90;;;;;;5064835;28;20035;-86
2023/04/08 09:15:21;;;;;;;;;;;11.10;99.90;;;;;;5056998;28;19928;-85
2023/04/08 09:17:47;;;;;;;;;;;11.30;99.90;;;;;;5078275;28;19928;-85
2023/04/08 09:20:14;;;;;;;;;;;11.50;99.90;;;;;;5081532;28;20227;-87
2023/04/08 09:22:57;;;;;;;;;;;11.60;99.90;;;;;;5080358;28;19983;-84
2023/04/08 09:25:24;;;;;;;;;;;11.90;99.90;;;;;;5084312;28;20771;-86
2023/04/08 09:27:51;;;;;;;;;;;12.20;99.90;;;;;;5069700;28;19925;-86
2023/04/08 09:30:18;;;;;;;;;;;12.70;99.90;;;;;;5064252;28;19932;-86
2023/04/08 09:32:50;;;;;;;;;;;13.20;99.90;;;;;;5070957;28;19940;-83
2023/04/08 09:35:17;;;;;;;;;;;13.50;99.90;;;;;;5057895;28;20370;-84
2023/04/08 09:37:44;;;;;;;;;;;13.50;99.90;;;;;;5058223;28;19933;-85
2023/04/08 09:40:14;;;;;;;;;;;13.50;99.90;;;;;;5075887;28;20009;-84
2023/04/08 09:42:41;;;;;;;;;;;13.60;99.90;;;;;;5071153;28;19932;-86
2023/04/08 09:45:09;;;;;;;;;;;13.90;99.90;;;;;;5056906;28;20623;-84
2023/04/08 09:47:40;;;;;;;;;;;14.10;99.90;;;;;;5071302;28;19954;-85
2023/04/08 09:50:09;;;;;;;;;;;14.40;99.90;;;;;;5057786;28;19947;-85
2023/04/08 09:52:39;;;;;;;;;;;14.40;99.90;;;;;;5052115;28;19951;-84
2023/04/08 09:55:09;;;;;;;;;;;14.40;99.90;;;;;;5076991;28;19933;-82
2023/04/08 09:57:40;;;;;;;;;;;14.50;99.90;;;;;;5073915;28;20484;-83
2023/04/08 10:00:09;;;;;;;;;;;14.70;99.90;;;;;;5056260;28;19932;-85
2023/04/08 10:02:46;;;;;;;;;;;14.80;99.90;;;;;;5052873;28;19967;-85
2023/04/08 10:05:14;;;;;;;;;;;15.00;99.90;;;;;;5084297;28;19952;-86
2023/04/08 10:07:41;;;;;;;;;;;15.20;99.90;;;;;;5083764;28;19992;-83
2023/04/08 10:10:09;;;;;;;;;;;15.40;99.90;;;;;;5068228;28;20042;-84
2023/04/08 10:12:36;;;;;;;;;;;15.90;99.90;;;;;;5077106;28;19929;-85
2023/04/08 10:15:22;;;;;;;;;;;15.90;99.90;;;;;;5056467;28;19987;-84
2023/04/08 10:17:49;;;;;;;;;;;15.70;99.90;;;;;;5080789;28;19920;-84
2023/04/08 10:20:44;;;;;;;;;;;15.80;99.90;;;;;;5043219;28;19946;-84
2023/04/08 10:23:13;;;;;;;;;;;16.20;99.90;;;;;;5032256;28;19995;-85
2023/04/08 10:25:43;;;;;;;;;;;16.50;99.90;;;;;;5071878;28;19939;-86
2023/04/08 10:28:34;;;;;;;;;;;17.10;99.90;;;;;;5065993;28;21985;-85
2023/04/08 10:31:01;;;;;;;;;;;17.30;99.90;;;;;;5033169;28;19943;-84
2023/04/08 10:33:32;;;;;;;;;;;17.00;99.90;;;;;;5577169;22;19934;-85
2023/04/08 10:36:01;;;;;;;;;;;16.90;99.90;;;;;;5031893;28;20143;-86
2023/04/08 10:38:29;;;;;;;;;;;17.60;99.90;;;;;;5024745;28;19956;-85
2023/04/08 10:40:56;;;;;;;;;;;17.90;99.90;;;;;;5018284;28;19940;-85
2023/04/08 10:43:23;;;;;;;;;;;17.40;99.90;;;;;;5036185;28;20032;-85
2023/04/08 10:45:53;;;;;;;;;;;17.30;99.90;;;;;;5037000;28;19929;-85
2023/04/08 10:48:21;;;;;;;;;;;17.00;99.90;;;;;;5040380;28;19929;-85
2023/04/08 10:50:56;;;;;;;;;;;16.80;99.90;;;;;;5037775;28;19968;-85
2023/04/08 10:53:26;;;;;;;;;;;16.60;99.90;;;;;;5031209;28;20329;-84
2023/04/08 10:56:03;;;;;;;;;;;16.40;99.90;;;;;;5052150;28;19960;-84
2023/04/08 10:58:30;;;;;;;;;;;16.20;99.90;;;;;;5039565;28;19933;-85
2023/04/08 11:01:02;;;;;;;;;;;15.70;99.90;;;;;;5031110;28;19969;-84
2023/04/08 11:03:32;;;;;;;;;;;15.30;99.90;;;;;;5036533;28;19960;-83
2023/04/08 11:05:59;;;;;;;;;;;15.20;99.90;;;;;;5028479;28;19936;-85
2023/04/08 11:08:27;;;;;;;;;;;15.10;99.90;;;;;;5024474;28;19940;-84
2023/04/08 11:10:56;;;;;;;;;;;14.90;99.90;;;;;;5024203;28;19925;-85
2023/04/08 11:13:23;;;;;;;;;;;14.60;99.90;;;;;;5025815;28;20940;-85
2023/04/08 11:15:50;;;;;;;;;;;14.40;99.90;;;;;;5025884;28;19933;-83
2023/04/08 11:18:17;;;;;;;;;;;14.20;99.90;;;;;;5036597;28;19929;-83
2023/04/08 11:20:44;;;;;;;;;;;13.80;99.90;;;;;;5037606;28;19935;-83
2023/04/08 11:23:12;;;;;;;;;;;13.60;99.90;;;;;;5031655;28;19939;-83
2023/04/08 11:25:39;;;;;;;;;;;13.40;99.90;;;;;;5028589;28;19925;-84
2023/04/08 11:28:08;;;;;;;;;;;13.00;99.90;;;;;;5029397;28;19936;-82
2023/04/08 11:30:36;;;;;;;;;;;12.90;99.90;;;;;;5046389;28;19929;-84
2023/04/08 11:33:03;;;;;;;;;;;12.90;99.90;;;;;;5041442;28;19933;-84
2023/04/08 11:35:30;;;;;;;;;;;12.80;99.90;;;;;;5055487;28;19932;-85
2023/04/08 11:37:57;;;;;;;;;;;12.80;99.90;;;;;;5043786;28;19941;-84
2023/04/08 11:40:25;;;;;;;;;;;13.00;99.90;;;;;;5039540;28;19943;-85
2023/04/08 11:42:52;;;;;;;;;;;13.00;99.90;;;;;;5562683;22;20283;-85
2023/04/08 11:45:21;;;;;;;;;;;13.20;99.90;;;;;;5027865;28;19933;-84
2023/04/08 11:47:48;;;;;;;;;;;13.30;99.90;;;;;;5030179;28;19933;-85
2023/04/08 11:50:22;;;;;;;;;;;13.30;99.90;;;;;;5041671;28;19933;-84
2023/04/08 11:52:50;;;;;;;;;;;13.40;99.90;;;;;;5062196;28;20057;-85
2023/04/08 11:55:22;;;;;;;;;;;13.50;99.90;;;;;;5052898;28;19913;-84
2023/04/08 11:57:49;;;;;;;;;;;13.60;99.90;;;;;;5044736;28;19933;-82
2023/04/08 12:00:16;;;;;;;;;;;13.40;99.90;;;;;;5031863;28;19944;-84
2023/04/08 12:02:45;;;;;;;;;;;13.50;99.90;;;;;;5045918;28;19939;-84
2023/04/08 12:05:12;;;;;;;;;;;13.60;99.90;;;;;;5062217;28;19951;-84
2023/04/08 12:07:39;;;;;;;;;;;13.70;99.90;;;;;;5041619;28;19921;-82
2023/04/08 12:10:06;;;;;;;;;;;13.70;99.90;;;;;;5026412;28;19952;-83
2023/04/08 12:12:33;;;;;;;;;;;14.00;99.90;;;;;;5022452;28;19937;-84
2023/04/08 12:15:00;;;;;;;;;;;14.30;99.90;;;;;;5025677;28;19952;-83
2023/04/08 12:17:26;;;;;;;;;;;14.70;99.90;;;;;;5034979;28;19946;-83
2023/04/08 12:19:55;;;;;;;;;;;15.10;99.90;;;;;;5034311;28;19937;-83
2023/04/08 12:22:21;;;;;;;;;;;15.20;99.90;;;;;;5034791;28;19929;-83
2023/04/08 12:24:48;;;;;;;;;;;15.50;99.90;;;;;;5024352;28;19933;-84
2023/04/08 12:27:15;;;;;;;;;;;15.50;99.90;;;;;;5026086;28;20244;-84
2023/04/08 12:29:42;;;;;;;;;;;15.80;99.90;;;;;;5027009;28;19937;-83
2023/04/08 12:32:09;;;;;;;;;;;15.60;99.90;;;;;;5026659;28;20032;-83
2023/04/08 12:34:36;;;;;;;;;;;16.00;99.90;;;;;;5022682;28;19933;-85
2023/04/08 12:37:04;;;;;;;;;;;16.10;99.90;;;;;;5030941;28;19929;-83
2023/04/08 12:39:31;;;;;;;;;;;16.20;99.90;;;;;;5029883;28;19930;-83
2023/04/08 12:41:58;;;;;;;;;;;16.20;99.90;;;;;;5030815;28;20039;-84
2023/04/08 12:44:25;;;;;;;;;;;16.20;99.90;;;;;;5026113;28;19936;-84
2023/04/08 12:46:51;;;;;;;;;;;16.20;99.90;;;;;;5027680;28;20004;-84
2023/04/08 12:49:18;;;;;;;;;;;16.20;99.90;;;;;;5027743;28;19956;-83
2023/04/08 12:51:45;;;;;;;;;;;16.00;99.90;;;;;;5026460;28;19993;-84
2023/04/08 12:54:13;;;;;;;;;;;16.00;99.90;;;;;;5036596;28;19933;-84
2023/04/08 12:56:42;;;;;;;;;;;15.90;99.90;;;;;;5045867;28;19939;-82
2023/04/08 12:59:08;;;;;;;;;;;15.80;99.90;;;;;;5035173;28;19934;-84
2023/04/08 13:01:35;;;;;;;;;;;15.80;99.90;;;;;;5022507;28;19929;-82
2023/04/08 13:04:02;;;;;;;;;;;15.70;99.90;;;;;;5016358;28;21485;-82
2023/04/08 13:06:29;;;;;;;;;;;15.80;99.90;;;;;;5032016;28;19933;-83
2023/04/08 13:08:55;;;;;;;;;;;15.80;99.90;;;;;;5020064;28;19936;-82
2023/04/08 13:11:23;;;;;;;;;;;15.80;99.90;;;;;;5024694;28;19933;-84
2023/04/08 13:13:50;;;;;;;;;;;15.90;99.90;;;;;;5049723;28;19948;-84
2023/04/08 13:16:17;;;;;;;;;;;16.00;99.90;;;;;;5034152;28;19933;-84
2023/04/08 13:18:45;;;;;;;;;;;15.80;99.90;;;;;;5055948;28;19921;-85
2023/04/08 13:21:12;;;;;;;;;;;15.50;99.90;;;;;;5049646;28;19921;-84
2023/04/08 13:23:38;;;;;;;;;;;15.10;99.90;;;;;;5565622;22;19939;-84
2023/04/08 13:26:05;;;;;;;;;;;14.80;99.90;;;;;;5008295;28;19933;-83
2023/04/08 13:28:33;;;;;;;;;;;14.80;99.90;;;;;;5003432;28;19938;-84
2023/04/08 13:31:00;;;;;;;;;;;14.80;99.90;;;;;;5000760;28;19942;-84
2023/04/08 13:33:27;;;;;;;;;;;14.80;99.90;;;;;;5003973;28;19934;-84
2023/04/08 13:35:53;;;;;;;;;;;14.80;99.90;;;;;;4998883;28;19941;-84
2023/04/08 13:38:20;;;;;;;;;;;15.00;99.90;;;;;;4992770;28;19930;-83
2023/04/08 13:40:47;;;;;;;;;;;14.90;99.90;;;;;;5002050;28;20521;-84
2023/04/08 13:43:13;;;;;;;;;;;14.80;99.90;;;;;;5461560;22;20308;-85
2023/04/08 13:45:42;;;;;;;;;;;14.90;99.90;;;;;;5016797;28;19933;-85
2023/04/08 13:48:08;;;;;;;;;;;15.00;99.90;;;;;;5021350;28;20485;-85
2023/04/08 13:50:35;;;;;;;;;;;14.70;99.90;;;;;;5019820;28;19969;-84
2023/04/08 13:53:02;;;;;;;;;;;14.50;99.90;;;;;;5030952;28;19930;-84
2023/04/08 13:55:29;;;;;;;;;;;14.90;99.90;;;;;;5016108;28;19929;-85
2023/04/08 13:57:56;;;;;;;;;;;14.30;99.90;;;;;;5016181;28;20975;-83
2023/04/08 14:00:24;;;;;;;;;;;14.40;99.90;;;;;;5012546;28;20386;-84
2023/04/08 14:02:52;;;;;;;;;;;14.70;99.90;;;;;;5012225;28;20027;-84
2023/04/08 14:05:19;;;;;;;;;;;14.90;99.90;;;;;;5014499;28;20314;-84
2023/04/08 14:07:47;;;;;;;;;;;14.70;99.90;;;;;;5013658;28;19941;-85
2023/04/08 14:10:15;;;;;;;;;;;14.50;99.90;;;;;;5012380;28;19933;-85
2023/04/08 14:12:41;;;;;;;;;;;14.50;99.90;;;;;;5011184;28;19953;-84
2023/04/08 14:15:09;;;;;;;;;;;14.50;99.90;;;;;;5012051;28;19934;-84
2023/04/08 14:17:35;;;;;;;;;;;14.60;99.90;;;;;;5015380;28;19933;-85
2023/04/08 14:20:05;;;;;;;;;;;14.60;99.90;;;;;;5018399;28;19929;-85
2023/04/08 14:22:31;;;;;;;;;;;14.60;99.90;;;;;;5014457;28;19929;-85
2023/04/08 14:24:58;;;;;;;;;;;14.40;99.90;;;;;;5015784;28;19944;-85
2023/04/08 14:27:25;;;;;;;;;;;14.10;99.90;;;;;;5018903;28;19934;-84
2023/04/08 14:29:52;;;;;;;;;;;14.00;99.90;;;;;;5017196;28;19939;-84
2023/04/08 14:32:19;;;;;;;;;;;14.10;99.90;;;;;;5013164;28;19930;-85
2023/04/08 14:34:45;;;;;;;;;;;14.50;99.90;;;;;;5016866;28;21052;-85
2023/04/08 14:37:13;;;;;;;;;;;14.60;99.90;;;;;;5018174;28;19933;-85
2023/04/08 14:39:40;;;;;;;;;;;14.70;99.90;;;;;;5014196;28;20030;-85
2023/04/08 14:42:07;;;;;;;;;;;14.70;99.90;;;;;;5013871;28;19930;-85